Terminal Aerodrome Forecast
Issued by NWS

Home | Current Version | Previous Version | Text Only | Print | Product List | Glossary Off
Versions: 1 2 3 4 5 6 7 8 9 10 11 12 13 14 15

000
FTUS43 KMPX 240500
TAFRWF
TAF
KRWF 240520Z 2406/2506 13015G22KT P6SM SCT015 OVC050
     FM240800 12012KT 6SM -RA BR SCT007 OVC015
     FM241000 10009KT 3SM -RA BR SCT006 OVC012
      TEMPO 2410/2414 2SM -RA BR BKN006
     FM241600 36009KT 5SM -RA BR SCT008 BKN015
     FM241800 32011KT P6SM SCT015 BKN050
     FM250000 29008KT P6SM SCT100=

USA.gov is the U.S. government's official web portal to all federal, state and local government web resources and services.